createdAt,value
2022-07-30T00:00:25.084Z,83.24
2022-07-30T00:02:30.019Z,82.14
2022-07-30T00:04:33.502Z,81.77
2022-07-30T00:06:37.836Z,83.54
2022-07-30T00:08:40.909Z,83.40
2022-07-30T00:10:44.071Z,84.18
2022-07-30T00:12:49.070Z,82.47
2022-07-30T00:14:52.294Z,82.93
2022-07-30T00:16:55.595Z,83.05
2022-07-30T00:19:00.135Z,83.97
2022-07-30T00:21:03.167Z,83.49
2022-07-30T00:23:06.355Z,85.09
2022-07-30T00:25:10.115Z,84.70
2022-07-30T00:27:14.460Z,84.75
2022-07-30T00:29:17.631Z,84.87
2022-07-30T00:31:20.726Z,84.02
2022-07-30T00:33:24.073Z,85.27
2022-07-30T00:35:28.845Z,84.65
2022-07-30T00:37:31.915Z,85.74
2022-07-30T00:39:34.980Z,85.29
2022-07-30T00:41:56.469Z,84.64
2022-07-30T00:43:59.996Z,85.56
2022-07-30T00:46:03.199Z,85.80
2022-07-30T00:48:07.134Z,85.23
2022-07-30T00:50:11.571Z,84.63
2022-07-30T00:52:16.110Z,84.67
2022-07-30T00:54:19.427Z,85.30
2022-07-30T00:56:23.039Z,84.90
2022-07-30T00:58:26.179Z,86.52
2022-07-30T01:00:29.669Z,84.99
2022-07-30T01:02:34.319Z,86.10
2022-07-30T01:04:37.460Z,85.74
2022-07-30T01:06:40.899Z,86.61
2022-07-30T01:08:45.505Z,85.25
2022-07-30T01:10:48.609Z,85.84
2022-07-30T01:12:52.733Z,86.65
2022-07-30T01:14:58.796Z,85.43
2022-07-30T01:17:02.489Z,85.29
2022-07-30T01:19:26.376Z,86.88
2022-07-30T01:21:33.510Z,86.76
2022-07-30T01:23:43.216Z,86.71
2022-07-30T01:25:54.471Z,85.74
2022-07-30T01:28:01.488Z,86.03
2022-07-30T01:30:07.379Z,86.55
2022-07-30T01:32:12.243Z,87.61
2022-07-30T01:34:17.352Z,87.41
2022-07-30T01:36:22.870Z,86.32
2022-07-30T01:38:27.104Z,87.50
2022-07-30T01:40:35.384Z,87.17
2022-07-30T01:42:41.478Z,87.31
2022-07-30T01:44:45.645Z,86.67
2022-07-30T01:46:50.104Z,87.31
2022-07-30T01:48:54.921Z,87.68
2022-07-30T01:51:04.244Z,87.41
2022-07-30T01:53:08.581Z,86.94
2022-07-30T01:55:17.152Z,86.86
2022-07-30T01:57:21.009Z,87.54
2022-07-30T01:59:26.674Z,86.80
2022-07-30T02:01:29.871Z,87.63
2022-07-30T02:03:36.131Z,86.93
2022-07-30T02:05:39.883Z,87.63
2022-07-30T02:07:48.968Z,87.27
2022-07-30T02:09:55.644Z,87.81
2022-07-30T02:12:17.534Z,88.01
2022-07-30T02:14:23.366Z,87.83
2022-07-30T02:16:30.713Z,87.74
2022-07-30T02:18:39.591Z,88.25
2022-07-30T02:20:48.746Z,88.19
2022-07-30T02:22:56.745Z,88.16
2022-07-30T02:25:01.693Z,88.10
2022-07-30T02:27:11.601Z,87.81
2022-07-30T02:29:18.149Z,87.85
2022-07-30T02:31:26.508Z,87.76
2022-07-30T02:33:36.104Z,87.73
2022-07-30T02:35:52.054Z,87.26
2022-07-30T02:37:55.980Z,87.38
2022-07-30T02:39:59.512Z,87.43
2022-07-30T02:42:03.510Z,87.12
2022-07-30T02:44:07.300Z,87.49
2022-07-30T02:46:11.419Z,88.23
2022-07-30T02:48:37.434Z,88.02
2022-07-30T02:50:40.728Z,88.27
2022-07-30T02:52:44.596Z,87.81
2022-07-30T02:54:49.245Z,87.73
2022-07-30T02:56:53.136Z,87.82
2022-07-30T02:58:57.245Z,87.81
2022-07-30T03:01:01.577Z,88.18
2022-07-30T03:03:07.200Z,87.80
2022-07-30T03:05:15.957Z,88.12
2022-07-30T03:07:19.963Z,89.16
2022-07-30T03:09:23.200Z,88.61
2022-07-30T03:11:28.204Z,88.90
2022-07-30T03:13:31.564Z,88.13
2022-07-30T03:15:39.481Z,88.96
2022-07-30T03:17:45.734Z,88.65
2022-07-30T03:19:49.810Z,88.97
2022-07-30T03:21:57.539Z,88.84
2022-07-30T03:24:03.299Z,89.04
2022-07-30T03:26:09.521Z,89.32
2022-07-30T03:28:13.824Z,88.95
2022-07-30T03:30:17.994Z,88.80
2022-07-30T03:32:21.288Z,88.90
2022-07-30T03:34:29.755Z,87.92
2022-07-30T03:36:33.322Z,88.03
2022-07-30T03:38:39.223Z,89.10
2022-07-30T03:40:43.123Z,88.00
2022-07-30T03:42:46.751Z,87.84
2022-07-30T03:44:53.440Z,89.02
2022-07-30T03:46:59.367Z,89.66
2022-07-30T03:49:03.290Z,89.78
2022-07-30T03:51:10.045Z,90.43
2022-07-30T03:53:15.284Z,90.57
2022-07-30T03:55:45.609Z,90.66
2022-07-30T03:58:07.801Z,90.50
2022-07-30T04:00:15.319Z,90.32
2022-07-30T04:02:23.998Z,88.99
2022-07-30T04:04:47.470Z,88.50
2022-07-30T04:06:50.709Z,88.37
2022-07-30T04:08:55.628Z,88.83
2022-07-30T04:11:00.291Z,90.36
2022-07-30T04:13:34.714Z,90.10
2022-07-30T04:16:37.887Z,89.71
2022-07-30T04:18:12.511Z,89.76
2022-07-30T04:20:18.780Z,88.94
2022-07-30T04:22:27.975Z,88.75
2022-07-30T04:24:32.653Z,88.95
2022-07-30T04:26:39.105Z,88.70
2022-07-30T04:28:42.550Z,88.87
2022-07-30T04:30:47.282Z,89.07
2022-07-30T04:32:50.731Z,89.27
2022-07-30T04:35:12.504Z,89.06
2022-07-30T04:37:55.986Z,89.35
2022-07-30T04:39:59.089Z,89.02
2022-07-30T04:42:03.597Z,89.08
2022-07-30T04:44:13.597Z,89.03
2022-07-30T04:46:26.072Z,89.47
2022-07-30T04:48:30.570Z,88.86
2022-07-30T04:50:48.501Z,87.91
2022-07-30T04:52:55.697Z,88.92
2022-07-30T04:55:06.763Z,88.70
2022-07-30T04:57:12.341Z,88.83
2022-07-30T04:59:16.065Z,88.55
2022-07-30T05:01:24.110Z,88.46
2022-07-30T05:03:41.358Z,88.54
2022-07-30T05:05:44.702Z,88.72
2022-07-30T05:07:47.956Z,88.67
2022-07-30T05:09:51.510Z,88.98
2022-07-30T05:11:56.171Z,88.84
2022-07-30T05:14:01.262Z,89.25
2022-07-30T05:16:04.706Z,88.70
2022-07-30T05:18:08.771Z,89.22
2022-07-30T05:20:15.575Z,88.70
2022-07-30T05:22:37.777Z,88.72
2022-07-30T05:24:47.878Z,89.30
2022-07-30T05:26:51.193Z,88.28
2022-07-30T05:28:56.944Z,88.46
2022-07-30T05:31:15.233Z,89.34
2022-07-30T05:33:42.286Z,88.81
2022-07-30T05:35:49.271Z,90.26
2022-07-30T05:37:52.430Z,89.78
2022-07-30T05:39:57.451Z,88.61
2022-07-30T05:42:26.550Z,88.07
2022-07-30T05:44:33.382Z,87.21
2022-07-30T05:46:37.931Z,87.64
2022-07-30T05:48:41.152Z,85.64
2022-07-30T05:50:44.344Z,84.37
2022-07-30T05:52:47.482Z,83.00
2022-07-30T05:55:11.605Z,82.17
2022-07-30T05:57:29.750Z,81.25
2022-07-30T05:59:33.749Z,80.91
2022-07-30T06:02:03.302Z,78.75
2022-07-30T06:04:25.138Z,77.79
2022-07-30T06:06:34.497Z,76.85
2022-07-30T06:08:37.850Z,75.11
2022-07-30T06:10:41.496Z,74.80
2022-07-30T06:12:47.761Z,74.24
2022-07-30T06:14:52.805Z,72.49
2022-07-30T06:17:03.708Z,72.84
2022-07-30T06:19:24.018Z,72.51
2022-07-30T06:21:27.124Z,70.60
2022-07-30T06:23:42.194Z,69.66
2022-07-30T06:25:59.767Z,69.70
2022-07-30T06:28:20.898Z,68.35
2022-07-30T06:30:31.376Z,68.13
2022-07-30T06:32:37.156Z,67.56
2022-07-30T06:34:40.741Z,67.23
2022-07-30T06:36:44.293Z,67.57
2022-07-30T06:39:05.535Z,65.96
2022-07-30T06:41:27.287Z,66.26
2022-07-30T06:43:34.472Z,65.17
2022-07-30T06:46:06.515Z,63.59
2022-07-30T06:48:16.242Z,64.84
2022-07-30T06:50:20.348Z,64.29
2022-07-30T06:52:23.684Z,63.06
2022-07-30T06:54:28.900Z,62.50
2022-07-30T06:56:34.728Z,62.08
2022-07-30T06:58:40.922Z,61.50
2022-07-30T07:01:02.539Z,61.02
2022-07-30T07:03:11.520Z,60.76
2022-07-30T07:05:16.423Z,60.89
2022-07-30T07:07:40.306Z,61.46
2022-07-30T07:09:45.782Z,60.88
2022-07-30T07:12:11.507Z,59.21
2022-07-30T07:14:17.408Z,59.99
2022-07-30T07:16:21.741Z,59.71
2022-07-30T07:18:25.734Z,59.09
2022-07-30T07:20:38.293Z,58.47
2022-07-30T07:22:43.996Z,58.44
2022-07-30T07:24:49.116Z,58.89
2022-07-30T07:26:57.299Z,58.58
2022-07-30T07:29:04.964Z,58.94
2022-07-30T07:31:09.554Z,57.76
2022-07-30T07:33:13.378Z,57.45
2022-07-30T07:35:20.264Z,57.38
2022-07-30T07:37:27.135Z,56.71
2022-07-30T07:39:31.462Z,56.81
2022-07-30T07:41:48.183Z,57.55
2022-07-30T07:43:54.158Z,56.79
2022-07-30T07:46:06.720Z,55.44
2022-07-30T07:48:11.783Z,54.97
2022-07-30T07:50:27.049Z,55.83
2022-07-30T07:52:31.663Z,55.38
2022-07-30T07:54:34.820Z,54.96
2022-07-30T07:56:37.976Z,55.87
2022-07-30T07:58:42.986Z,55.09
2022-07-30T08:00:48.558Z,54.82
2022-07-30T08:02:53.434Z,54.31
2022-07-30T08:04:56.754Z,54.10
2022-07-30T08:07:21.523Z,53.75
2022-07-30T08:09:52.017Z,53.05
2022-07-30T08:12:13.898Z,52.58
2022-07-30T08:14:39.974Z,53.55
2022-07-30T08:17:09.590Z,52.43
2022-07-30T08:19:33.004Z,52.97
2022-07-30T08:21:53.177Z,51.83
2022-07-30T08:23:56.457Z,52.24
2022-07-30T08:26:02.119Z,51.92
2022-07-30T08:28:05.405Z,51.39
2022-07-30T08:30:10.289Z,51.87
2022-07-30T08:32:14.594Z,50.90
2022-07-30T08:34:20.344Z,51.11
2022-07-30T08:36:29.136Z,50.69
2022-07-30T08:38:32.424Z,49.75
2022-07-30T08:40:36.562Z,50.18
2022-07-30T08:42:42.220Z,50.07
2022-07-30T08:44:46.416Z,49.92
2022-07-30T08:46:53.019Z,50.94
2022-07-30T08:49:16.738Z,50.96
2022-07-30T08:51:21.030Z,50.62
2022-07-30T08:53:43.307Z,48.47
2022-07-30T08:55:46.549Z,48.86
2022-07-30T08:57:51.075Z,47.85
2022-07-30T09:00:00.403Z,48.95
2022-07-30T09:02:07.795Z,48.82
2022-07-30T09:04:23.645Z,49.37
2022-07-30T09:06:29.284Z,48.46
2022-07-30T09:08:33.440Z,47.27
2022-07-30T09:10:37.463Z,48.63
2022-07-30T09:12:41.576Z,47.50
2022-07-30T09:15:02.817Z,47.91
2022-07-30T09:17:06.946Z,48.18
2022-07-30T09:19:15.349Z,47.73
2022-07-30T09:21:20.850Z,48.99
2022-07-30T09:23:28.177Z,48.17
2022-07-30T09:25:51.927Z,49.30
2022-07-30T09:28:15.825Z,50.18
2022-07-30T09:30:48.183Z,50.51
2022-07-30T09:33:09.644Z,50.25
2022-07-30T09:35:36.190Z,51.13
2022-07-30T09:37:48.592Z,51.33
2022-07-30T09:40:16.666Z,52.25
2022-07-30T09:42:45.749Z,49.67
2022-07-30T09:44:51.244Z,49.12
2022-07-30T09:46:55.973Z,50.24
2022-07-30T09:49:15.892Z,51.52
2022-07-30T09:51:23.841Z,50.76
2022-07-30T09:53:55.856Z,50.01
2022-07-30T09:56:04.397Z,50.48
2022-07-30T09:58:08.236Z,50.86
2022-07-30T10:00:24.019Z,52.43
2022-07-30T10:02:50.429Z,52.37
2022-07-30T10:05:14.893Z,50.73
2022-07-30T10:07:25.657Z,50.92
2022-07-30T10:09:31.848Z,50.72
2022-07-30T10:11:35.214Z,48.70
2022-07-30T10:13:43.910Z,48.31
2022-07-30T10:15:50.725Z,49.38
2022-07-30T10:17:55.383Z,48.94
2022-07-30T10:20:22.689Z,50.16
2022-07-30T10:22:46.675Z,50.41
2022-07-30T10:25:11.344Z,49.02
2022-07-30T10:27:41.204Z,49.85
2022-07-30T10:29:57.454Z,50.96
2022-07-30T10:32:01.992Z,50.32
2022-07-30T10:34:06.401Z,50.84
2022-07-30T10:36:11.850Z,50.02
2022-07-30T10:38:16.426Z,50.36
2022-07-30T10:40:30.446Z,49.00
2022-07-30T10:42:48.766Z,49.17
2022-07-30T10:45:09.991Z,49.48
2022-07-30T10:47:24.686Z,49.81
2022-07-30T10:49:40.368Z,49.77
2022-07-30T10:51:46.589Z,50.08
2022-07-30T10:53:49.848Z,49.35
2022-07-30T10:56:12.205Z,48.99
2022-07-30T10:58:18.027Z,48.55
2022-07-30T11:00:26.948Z,49.23
2022-07-30T11:02:31.310Z,49.38
2022-07-30T11:04:36.855Z,49.34
2022-07-30T11:06:40.352Z,49.54
2022-07-30T11:08:45.056Z,49.88
2022-07-30T11:10:51.164Z,50.41
2022-07-30T11:12:55.621Z,50.09
2022-07-30T11:15:06.160Z,50.64
2022-07-30T11:17:10.555Z,50.45
2022-07-30T11:19:56.707Z,50.07
2022-07-30T11:21:42.404Z,50.34
2022-07-30T11:23:53.374Z,50.39
2022-07-30T11:25:58.429Z,49.32
2022-07-30T11:28:02.032Z,49.38
2022-07-30T11:30:08.193Z,49.12
2022-07-30T11:32:26.087Z,50.05
2022-07-30T11:34:30.675Z,50.42
2022-07-30T11:36:34.325Z,50.84
2022-07-30T11:39:00.084Z,52.38
2022-07-30T11:41:10.901Z,51.81
2022-07-30T11:43:34.556Z,52.40
2022-07-30T11:45:39.596Z,50.75
2022-07-30T11:47:43.162Z,50.99
2022-07-30T11:49:47.153Z,50.88
2022-07-30T11:51:51.016Z,50.51
2022-07-30T11:54:07.257Z,50.72
2022-07-30T11:56:10.437Z,51.36
2022-07-30T11:58:27.074Z,49.85
2022-07-30T12:00:36.648Z,49.83
2022-07-30T12:02:40.298Z,50.92
2022-07-30T12:04:44.700Z,51.07
2022-07-30T12:06:49.301Z,51.31
2022-07-30T12:08:58.556Z,50.45
2022-07-30T12:11:03.316Z,50.66
2022-07-30T12:13:11.383Z,51.35
2022-07-30T12:15:30.659Z,50.50
2022-07-30T12:17:42.574Z,48.96
2022-07-30T12:19:47.807Z,48.81
2022-07-30T12:21:53.547Z,49.07
2022-07-30T12:23:58.511Z,48.83
2022-07-30T12:26:03.270Z,48.92
2022-07-30T12:28:06.407Z,48.61
2022-07-30T12:30:10.331Z,48.54
2022-07-30T12:32:13.463Z,48.92
2022-07-30T12:34:23.713Z,50.51
2022-07-30T12:36:29.407Z,48.61
2022-07-30T12:38:44.766Z,48.54
2022-07-30T12:40:58.754Z,48.67
2022-07-30T12:43:03.218Z,48.05
2022-07-30T12:45:07.651Z,47.61
2022-07-30T12:47:21.664Z,47.82
2022-07-30T12:49:37.723Z,48.11
2022-07-30T12:52:00.354Z,48.16
2022-07-30T12:54:16.315Z,47.99
2022-07-30T12:56:24.103Z,48.12
2022-07-30T12:58:37.561Z,47.17
2022-07-30T13:00:52.134Z,48.12
2022-07-30T13:02:56.125Z,47.70
2022-07-30T13:05:10.813Z,47.99
2022-07-30T13:07:16.761Z,47.47
2022-07-30T13:09:21.035Z,47.61
2022-07-30T13:11:26.278Z,47.52
2022-07-30T13:13:32.759Z,47.55
2022-07-30T13:15:35.826Z,47.46
2022-07-30T13:17:40.427Z,47.86
2022-07-30T13:19:43.620Z,47.84
2022-07-30T13:21:49.758Z,47.81
2022-07-30T13:23:53.330Z,47.80
2022-07-30T13:25:56.838Z,47.78
2022-07-30T13:28:00.008Z,48.85
2022-07-30T13:30:05.254Z,48.52
2022-07-30T13:32:08.648Z,48.59
2022-07-30T13:34:12.133Z,48.30
2022-07-30T13:36:15.378Z,47.69
2022-07-30T13:38:18.847Z,47.43
2022-07-30T13:40:22.064Z,47.92
2022-07-30T13:42:25.306Z,48.43
2022-07-30T13:44:28.379Z,47.97
2022-07-30T13:46:33.509Z,48.38
2022-07-30T13:48:36.795Z,48.40
2022-07-30T13:50:40.141Z,48.16
2022-07-30T13:52:43.172Z,48.24
2022-07-30T13:54:46.595Z,47.87
2022-07-30T13:56:49.719Z,48.82
2022-07-30T13:58:52.797Z,48.57
2022-07-30T14:00:55.947Z,48.89
2022-07-30T14:03:01.404Z,47.64
2022-07-30T14:05:07.067Z,48.36
2022-07-30T14:07:10.415Z,49.23
2022-07-30T14:09:13.662Z,49.28
2022-07-30T14:11:17.824Z,49.14
2022-07-30T14:13:21.543Z,48.63
2022-07-30T14:15:26.305Z,48.59
2022-07-30T14:17:29.557Z,47.78
2022-07-30T14:19:33.998Z,48.02
2022-07-30T14:21:37.092Z,47.96
2022-07-30T14:23:40.140Z,48.42
2022-07-30T14:25:44.240Z,47.67
2022-07-30T14:27:48.177Z,47.35
2022-07-30T14:29:51.510Z,46.60
2022-07-30T14:31:54.598Z,47.42
2022-07-30T14:33:57.711Z,47.19
2022-07-30T14:36:02.138Z,47.62
2022-07-30T14:38:05.848Z,47.43
2022-07-30T14:40:11.728Z,46.96
2022-07-30T14:42:14.913Z,47.03
2022-07-30T14:44:18.001Z,47.66
2022-07-30T14:46:21.075Z,48.07
2022-07-30T14:48:24.153Z,47.60
2022-07-30T14:50:27.171Z,48.40
2022-07-30T14:52:34.906Z,48.25
2022-07-30T14:54:37.967Z,48.69
2022-07-30T14:56:41.079Z,48.06
2022-07-30T14:58:45.755Z,48.15
2022-07-30T15:00:49.232Z,47.98
2022-07-30T15:02:52.396Z,48.48
2022-07-30T15:04:55.644Z,49.69
2022-07-30T15:06:58.783Z,47.14
2022-07-30T15:09:03.541Z,47.04
2022-07-30T15:11:08.208Z,46.94
2022-07-30T15:13:12.825Z,47.92
2022-07-30T15:15:17.565Z,48.60
2022-07-30T15:17:20.805Z,47.67
2022-07-30T15:19:24.235Z,47.36
2022-07-30T15:21:27.370Z,48.87
2022-07-30T15:23:30.516Z,47.67
2022-07-30T15:25:34.968Z,48.99
2022-07-30T15:27:39.426Z,48.22
2022-07-30T15:29:42.794Z,49.47
2022-07-30T15:31:45.904Z,48.59
2022-07-30T15:33:49.665Z,48.69
2022-07-30T15:35:52.820Z,49.15
2022-07-30T15:37:55.909Z,48.05
2022-07-30T15:39:59.154Z,48.60
2022-07-30T15:42:06.061Z,47.95
2022-07-30T15:44:09.656Z,48.80
2022-07-30T15:46:12.652Z,48.87
2022-07-30T15:48:15.741Z,48.56
2022-07-30T15:50:28.391Z,47.72
2022-07-30T15:52:31.474Z,48.40
2022-07-30T15:54:34.711Z,47.87
2022-07-30T15:56:37.821Z,48.18
2022-07-30T15:58:43.625Z,48.11
2022-07-30T16:00:47.152Z,48.84
2022-07-30T16:02:51.108Z,48.20
2022-07-30T16:04:54.212Z,48.87
2022-07-30T16:06:58.078Z,49.19
2022-07-30T16:09:01.315Z,48.51
2022-07-30T16:11:05.307Z,48.73
2022-07-30T16:13:08.588Z,48.53
2022-07-30T16:15:13.460Z,47.93
2022-07-30T16:17:19.688Z,48.79
2022-07-30T16:19:22.918Z,48.01
2022-07-30T16:21:26.023Z,48.75
2022-07-30T16:23:36.663Z,48.67
2022-07-30T16:25:40.132Z,48.80
2022-07-30T16:27:43.606Z,49.15
2022-07-30T16:29:46.704Z,48.75
2022-07-30T16:31:51.202Z,50.28
2022-07-30T16:33:54.302Z,48.50
2022-07-30T16:35:57.355Z,49.51
2022-07-30T16:38:02.737Z,49.22
2022-07-30T16:40:07.011Z,47.89
2022-07-30T16:42:11.526Z,49.25
2022-07-30T16:44:14.746Z,48.93
2022-07-30T16:46:19.041Z,49.00
2022-07-30T16:48:24.022Z,47.83
2022-07-30T16:50:27.181Z,48.17
2022-07-30T16:52:30.335Z,48.57
2022-07-30T16:54:33.398Z,48.79
2022-07-30T16:56:36.535Z,48.30
2022-07-30T16:58:39.566Z,49.21
2022-07-30T17:00:42.817Z,48.86
2022-07-30T17:02:46.053Z,48.80
2022-07-30T17:04:50.477Z,48.74
2022-07-30T17:06:53.563Z,48.71
2022-07-30T17:08:56.672Z,48.52
2022-07-30T17:11:00.330Z,49.27
2022-07-30T17:13:03.814Z,48.54
2022-07-30T17:15:07.901Z,48.27
2022-07-30T17:17:14.399Z,48.58
2022-07-30T17:19:17.812Z,47.61
2022-07-30T17:21:23.028Z,48.15
2022-07-30T17:23:26.240Z,47.57
2022-07-30T17:25:29.291Z,49.31
2022-07-30T17:27:33.297Z,48.15
2022-07-30T17:29:50.326Z,48.00
2022-07-30T17:31:55.616Z,48.87
2022-07-30T17:33:58.873Z,48.07
2022-07-30T17:36:02.122Z,48.17
2022-07-30T17:38:07.256Z,49.44
2022-07-30T17:40:28.543Z,49.08
2022-07-30T17:42:34.801Z,50.46
2022-07-30T17:44:37.932Z,48.65
2022-07-30T17:46:41.079Z,49.25
2022-07-30T17:48:44.445Z,48.87
2022-07-30T17:50:48.095Z,49.22
2022-07-30T17:52:51.158Z,49.29
2022-07-30T17:54:55.730Z,49.13
2022-07-30T17:56:58.886Z,48.87
2022-07-30T17:59:01.993Z,48.81
2022-07-30T18:01:05.696Z,50.10
2022-07-30T18:03:08.868Z,50.76
2022-07-30T18:05:15.402Z,50.01
2022-07-30T18:07:18.550Z,49.91
2022-07-30T18:09:21.665Z,49.90
2022-07-30T18:11:26.185Z,49.39
2022-07-30T18:13:29.932Z,49.87
2022-07-30T18:15:36.005Z,49.92
2022-07-30T18:17:39.357Z,50.45
2022-07-30T18:19:42.523Z,50.61
2022-07-30T18:21:45.707Z,50.52
2022-07-30T18:23:49.475Z,50.21
2022-07-30T18:25:54.452Z,50.86
2022-07-30T18:27:59.122Z,51.00
2022-07-30T18:30:02.289Z,50.54
2022-07-30T18:32:06.366Z,51.16
2022-07-30T18:34:09.675Z,51.14
2022-07-30T18:36:12.767Z,51.46
2022-07-30T18:38:16.380Z,51.41
2022-07-30T18:40:23.881Z,52.74
2022-07-30T18:42:27.034Z,52.14
2022-07-30T18:44:31.588Z,53.28
2022-07-30T18:46:34.845Z,53.40
2022-07-30T18:48:37.936Z,54.31
2022-07-30T18:50:41.527Z,54.41
2022-07-30T18:52:46.811Z,54.47
2022-07-30T18:54:51.076Z,54.00
2022-07-30T18:56:56.759Z,54.96
2022-07-30T18:59:02.700Z,55.57
2022-07-30T19:01:08.077Z,55.65
2022-07-30T19:03:17.422Z,55.64
2022-07-30T19:05:24.264Z,55.70
2022-07-30T19:07:27.351Z,56.19
2022-07-30T19:09:30.476Z,55.73
2022-07-30T19:11:33.585Z,55.77
2022-07-30T19:13:39.641Z,54.87
2022-07-30T19:15:42.761Z,55.07
2022-07-30T19:17:48.754Z,55.80
2022-07-30T19:19:52.172Z,55.71
2022-07-30T19:21:55.227Z,56.63
2022-07-30T19:23:58.475Z,57.39
2022-07-30T19:26:01.728Z,57.46
2022-07-30T19:28:05.790Z,57.78
2022-07-30T19:30:10.267Z,57.72
2022-07-30T19:32:13.511Z,57.36
2022-07-30T19:34:17.998Z,55.96
2022-07-30T19:36:21.634Z,56.07
2022-07-30T19:38:24.695Z,56.32
2022-07-30T19:40:27.884Z,57.39
2022-07-30T19:42:31.033Z,57.45
2022-07-30T19:44:40.433Z,58.28
2022-07-30T19:46:44.468Z,58.54
2022-07-30T19:48:47.998Z,58.67
2022-07-30T19:50:58.185Z,59.21
2022-07-30T19:53:01.897Z,59.32
2022-07-30T19:55:16.879Z,58.93
2022-07-30T19:57:53.208Z,59.05
2022-07-30T20:00:00.224Z,59.48
2022-07-30T20:02:15.656Z,60.27
2022-07-30T20:04:18.893Z,59.42
2022-07-30T20:06:23.929Z,59.25
2022-07-30T20:08:27.196Z,59.70
2022-07-30T20:10:30.337Z,59.81
2022-07-30T20:12:34.414Z,58.76
2022-07-30T20:14:37.785Z,60.04
2022-07-30T20:16:47.593Z,60.41
2022-07-30T20:18:51.535Z,60.90
2022-07-30T20:20:55.663Z,60.27
2022-07-30T20:23:02.144Z,61.08
2022-07-30T20:25:07.039Z,61.35
2022-07-30T20:27:35.802Z,61.58
2022-07-30T20:29:34.285Z,60.56
2022-07-30T20:31:37.654Z,60.95
2022-07-30T20:33:41.177Z,61.61
2022-07-30T20:35:45.220Z,61.32
2022-07-30T20:37:55.724Z,61.56
2022-07-30T20:40:14.775Z,62.20
2022-07-30T20:42:18.645Z,61.92
2022-07-30T20:44:24.944Z,62.48
2022-07-30T20:46:28.213Z,63.00
2022-07-30T20:48:34.811Z,62.51
2022-07-30T20:50:39.767Z,62.25
2022-07-30T20:52:44.926Z,62.98
2022-07-30T20:54:49.961Z,63.07
2022-07-30T20:56:54.427Z,63.16
2022-07-30T20:58:57.926Z,63.77
2022-07-30T21:01:03.919Z,64.34
2022-07-30T21:03:13.774Z,64.49
2022-07-30T21:05:19.806Z,64.04
2022-07-30T21:07:23.301Z,63.59
2022-07-30T21:09:49.762Z,64.60
2022-07-30T21:11:57.215Z,64.33
2022-07-30T21:14:03.255Z,65.15
2022-07-30T21:16:15.484Z,65.50
2022-07-30T21:18:19.576Z,64.99
2022-07-30T21:20:27.903Z,64.67
2022-07-30T21:22:31.389Z,65.57
2022-07-30T21:24:34.655Z,65.75
2022-07-30T21:26:38.901Z,66.37
2022-07-30T21:28:43.911Z,65.87
2022-07-30T21:30:47.044Z,66.13
2022-07-30T21:32:50.150Z,66.89
2022-07-30T21:34:54.523Z,67.14
2022-07-30T21:36:57.635Z,67.47
2022-07-30T21:39:01.751Z,67.44
2022-07-30T21:41:05.750Z,66.40
2022-07-30T21:43:14.053Z,66.65
2022-07-30T21:45:38.017Z,67.76
2022-07-30T21:47:47.618Z,67.21
2022-07-30T21:49:51.179Z,67.54
2022-07-30T21:51:56.344Z,67.52
2022-07-30T21:53:59.491Z,67.37
2022-07-30T21:56:02.953Z,68.22
2022-07-30T21:58:08.745Z,68.59
2022-07-30T22:00:44.589Z,69.00
2022-07-30T22:02:52.957Z,69.92
2022-07-30T22:04:56.919Z,68.62
2022-07-30T22:07:02.517Z,68.80
2022-07-30T22:09:19.548Z,69.20
2022-07-30T22:11:42.187Z,69.09
2022-07-30T22:13:53.675Z,69.90
2022-07-30T22:15:59.031Z,70.54
2022-07-30T22:18:02.151Z,69.08
2022-07-30T22:20:08.450Z,69.69
2022-07-30T22:22:25.981Z,70.73
2022-07-30T22:24:31.339Z,69.39
2022-07-30T22:26:34.842Z,70.70
2022-07-30T22:28:39.094Z,71.11
2022-07-30T22:30:42.458Z,71.59
2022-07-30T22:32:48.833Z,70.38
2022-07-30T22:34:52.834Z,71.58
2022-07-30T22:36:57.599Z,72.35
2022-07-30T22:39:00.809Z,70.19
2022-07-30T22:41:04.162Z,71.40
2022-07-30T22:43:09.739Z,71.79
2022-07-30T22:45:15.814Z,70.16
2022-07-30T22:47:21.394Z,70.51
2022-07-30T22:49:45.875Z,71.44
2022-07-30T22:52:04.872Z,71.55
2022-07-30T22:54:16.405Z,72.27
2022-07-30T22:56:23.876Z,72.12
2022-07-30T22:58:28.703Z,72.04
2022-07-30T23:00:33.000Z,70.66
2022-07-30T23:02:36.366Z,72.43
2022-07-30T23:04:39.585Z,72.20
2022-07-30T23:06:45.113Z,72.41
2022-07-30T23:08:50.644Z,73.12
2022-07-30T23:10:53.739Z,71.63
2022-07-30T23:12:57.347Z,72.32
2022-07-30T23:15:00.587Z,71.84
2022-07-30T23:17:04.010Z,71.68
2022-07-30T23:19:07.708Z,72.34
2022-07-30T23:21:10.977Z,72.30
2022-07-30T23:23:15.530Z,71.90
2022-07-30T23:25:18.891Z,71.50
2022-07-30T23:27:21.969Z,73.14
2022-07-30T23:29:25.083Z,73.19
2022-07-30T23:31:28.307Z,73.02
2022-07-30T23:33:31.635Z,72.97
2022-07-30T23:35:34.925Z,72.99
2022-07-30T23:37:48.253Z,72.56
2022-07-30T23:39:54.037Z,73.48
2022-07-30T23:41:57.242Z,73.42
2022-07-30T23:44:00.365Z,73.00
2022-07-30T23:46:04.022Z,74.41
2022-07-30T23:48:13.140Z,74.73
2022-07-30T23:50:18.646Z,74.03
2022-07-30T23:52:21.785Z,74.43
2022-07-30T23:54:24.777Z,73.80
2022-07-30T23:56:29.443Z,74.63
2022-07-30T23:58:32.559Z,74.16
